Terminal Aerodrome Forecast
Issued by NWS Charleston, WV

Home | Current Version | Previous Version | Text Only | Print | Product List | Glossary On
Versions: 1 2 3 4 5 6 7 8 9 10 11 12 13 14 15 16 17 18 19 20 21
000
FTUS41 KRLX 242000 AAA
TAFBKW
TAF AMD
KBKW 242017Z 2420/2518 36008KT P6SM SCT004 BKN010
      TEMPO 2420/2422 3SM SHRA BR BKN004
     FM250000 34004KT P6SM BKN020
     FM250300 VRB03KT P6SM SCT008=

USA.gov is the U.S. government's official web portal to all federal, state and local government web resources and services.